sensor_id;sensor_type;location;lat;lon;timestamp;temperature;humidity
46976;DHT22;32724;51.094;6.996;2023-05-10T00:02:03;13.20;99.90
46976;DHT22;32724;51.094;6.996;2023-05-10T00:04:29;12.70;99.90
46976;DHT22;32724;51.094;6.996;2023-05-10T00:06:54;12.50;99.90
46976;DHT22;32724;51.094;6.996;2023-05-10T00:09:20;12.30;99.90
46976;DHT22;32724;51.094;6.996;2023-05-10T00:11:45;12.20;99.90
46976;DHT22;32724;51.094;6.996;2023-05-10T00:14:11;12.10;99.90
46976;DHT22;32724;51.094;6.996;2023-05-10T00:16:37;12.10;99.90
46976;DHT22;32724;51.094;6.996;2023-05-10T00:19:02;12.10;99.90
46976;DHT22;32724;51.094;6.996;2023-05-10T00:21:27;12.10;99.90
46976;DHT22;32724;51.094;6.996;2023-05-10T00:23:53;12.40;99.90
46976;DHT22;32724;51.094;6.996;2023-05-10T00:26:19;12.60;99.90
46976;DHT22;32724;51.094;6.996;2023-05-10T00:28:45;12.70;99.90
46976;DHT22;32724;51.094;6.996;2023-05-10T00:31:10;12.80;99.90
46976;DHT22;32724;51.094;6.996;2023-05-10T00:33:36;13.00;99.90
46976;DHT22;32724;51.094;6.996;2023-05-10T00:36:01;13.00;99.90
46976;DHT22;32724;51.094;6.996;2023-05-10T00:38:26;13.10;99.90
46976;DHT22;32724;51.094;6.996;2023-05-10T00:40:52;13.10;99.90
46976;DHT22;32724;51.094;6.996;2023-05-10T00:43:17;13.20;99.90
46976;DHT22;32724;51.094;6.996;2023-05-10T00:45:43;13.20;99.90
46976;DHT22;32724;51.094;6.996;2023-05-10T00:48:08;13.20;99.90
46976;DHT22;32724;51.094;6.996;2023-05-10T00:50:34;13.20;99.90
46976;DHT22;32724;51.094;6.996;2023-05-10T00:53:00;13.20;99.90
46976;DHT22;32724;51.094;6.996;2023-05-10T00:55:26;13.20;99.90
46976;DHT22;32724;51.094;6.996;2023-05-10T00:57:52;13.20;99.90
46976;DHT22;32724;51.094;6.996;2023-05-10T01:00:17;13.20;99.90
46976;DHT22;32724;51.094;6.996;2023-05-10T01:02:46;13.30;99.90
46976;DHT22;32724;51.094;6.996;2023-05-10T01:05:12;13.20;99.90
46976;DHT22;32724;51.094;6.996;2023-05-10T01:07:38;13.20;99.90
46976;DHT22;32724;51.094;6.996;2023-05-10T01:10:04;13.20;99.90
46976;DHT22;32724;51.094;6.996;2023-05-10T01:12:30;13.20;99.90
46976;DHT22;32724;51.094;6.996;2023-05-10T01:14:55;13.20;99.90
46976;DHT22;32724;51.094;6.996;2023-05-10T01:17:21;13.20;99.90
46976;DHT22;32724;51.094;6.996;2023-05-10T01:19:47;13.20;99.90
46976;DHT22;32724;51.094;6.996;2023-05-10T01:25:08;13.20;99.90
46976;DHT22;32724;51.094;6.996;2023-05-10T01:27:41;13.20;99.90
46976;DHT22;32724;51.094;6.996;2023-05-10T01:40:25;13.20;99.90
46976;DHT22;32724;51.094;6.996;2023-05-10T01:42:59;13.20;99.90
46976;DHT22;32724;51.094;6.996;2023-05-10T01:45:40;13.20;99.90
46976;DHT22;32724;51.094;6.996;2023-05-10T01:48:08;13.20;99.90
46976;DHT22;32724;51.094;6.996;2023-05-10T01:50:35;13.10;99.90
46976;DHT22;32724;51.094;6.996;2023-05-10T01:53:01;13.00;99.90
46976;DHT22;32724;51.094;6.996;2023-05-10T01:55:32;13.00;99.90
46976;DHT22;32724;51.094;6.996;2023-05-10T01:58:02;13.00;99.90
46976;DHT22;32724;51.094;6.996;2023-05-10T02:00:29;12.90;99.90
46976;DHT22;32724;51.094;6.996;2023-05-10T02:02:54;12.80;99.90
46976;DHT22;32724;51.094;6.996;2023-05-10T02:05:20;12.80;99.90
46976;DHT22;32724;51.094;6.996;2023-05-10T02:07:47;12.80;99.90
46976;DHT22;32724;51.094;6.996;2023-05-10T02:10:12;12.80;99.90
46976;DHT22;32724;51.094;6.996;2023-05-10T02:12:39;12.80;99.90
46976;DHT22;32724;51.094;6.996;2023-05-10T02:15:06;12.80;99.90
46976;DHT22;32724;51.094;6.996;2023-05-10T02:17:32;12.80;99.90
46976;DHT22;32724;51.094;6.996;2023-05-10T02:19:59;12.80;99.90
46976;DHT22;32724;51.094;6.996;2023-05-10T02:22:29;12.70;99.90
46976;DHT22;32724;51.094;6.996;2023-05-10T02:24:55;12.80;99.90
46976;DHT22;32724;51.094;6.996;2023-05-10T02:27:21;12.70;99.90
46976;DHT22;32724;51.094;6.996;2023-05-10T02:29:47;12.70;99.90
46976;DHT22;32724;51.094;6.996;2023-05-10T02:32:13;12.70;99.90
46976;DHT22;32724;51.094;6.996;2023-05-10T02:34:39;12.70;99.90
46976;DHT22;32724;51.094;6.996;2023-05-10T02:37:05;12.70;99.90
46976;DHT22;32724;51.094;6.996;2023-05-10T02:39:31;12.70;99.90
46976;DHT22;32724;51.094;6.996;2023-05-10T02:41:57;12.70;99.90
46976;DHT22;32724;51.094;6.996;2023-05-10T02:44:23;12.70;99.90
46976;DHT22;32724;51.094;6.996;2023-05-10T02:46:50;12.70;99.90
46976;DHT22;32724;51.094;6.996;2023-05-10T02:49:15;12.70;99.90
46976;DHT22;32724;51.094;6.996;2023-05-10T02:51:42;12.70;99.90
46976;DHT22;32724;51.094;6.996;2023-05-10T02:54:15;12.70;99.90
46976;DHT22;32724;51.094;6.996;2023-05-10T02:56:47;12.80;99.90
46976;DHT22;32724;51.094;6.996;2023-05-10T02:59:14;12.80;99.90
46976;DHT22;32724;51.094;6.996;2023-05-10T03:01:40;12.80;99.90
46976;DHT22;32724;51.094;6.996;2023-05-10T03:04:05;12.80;99.90
46976;DHT22;32724;51.094;6.996;2023-05-10T03:06:31;12.70;99.90
46976;DHT22;32724;51.094;6.996;2023-05-10T03:08:56;12.80;99.90
46976;DHT22;32724;51.094;6.996;2023-05-10T03:16:41;12.80;99.90
46976;DHT22;32724;51.094;6.996;2023-05-10T03:19:12;12.80;99.90
46976;DHT22;32724;51.094;6.996;2023-05-10T03:21:41;12.90;99.90
46976;DHT22;32724;51.094;6.996;2023-05-10T03:24:08;12.90;99.90
46976;DHT22;32724;51.094;6.996;2023-05-10T03:26:37;12.90;99.90
46976;DHT22;32724;51.094;6.996;2023-05-10T03:29:03;12.80;99.90
46976;DHT22;32724;51.094;6.996;2023-05-10T03:31:29;12.90;99.90
46976;DHT22;32724;51.094;6.996;2023-05-10T03:33:55;12.90;99.90
46976;DHT22;32724;51.094;6.996;2023-05-10T03:36:21;12.90;99.90
46976;DHT22;32724;51.094;6.996;2023-05-10T03:38:47;12.90;99.90
46976;DHT22;32724;51.094;6.996;2023-05-10T03:41:12;12.90;99.90
46976;DHT22;32724;51.094;6.996;2023-05-10T03:43:38;12.90;99.90
46976;DHT22;32724;51.094;6.996;2023-05-10T03:46:04;12.90;99.90
46976;DHT22;32724;51.094;6.996;2023-05-10T03:48:29;12.90;99.90
46976;DHT22;32724;51.094;6.996;2023-05-10T03:50:55;12.90;99.90
46976;DHT22;32724;51.094;6.996;2023-05-10T03:53:20;12.90;99.90
46976;DHT22;32724;51.094;6.996;2023-05-10T03:55:46;12.90;99.90
46976;DHT22;32724;51.094;6.996;2023-05-10T03:58:11;12.90;99.90
46976;DHT22;32724;51.094;6.996;2023-05-10T04:00:37;12.80;99.90
46976;DHT22;32724;51.094;6.996;2023-05-10T04:03:02;12.80;99.90
46976;DHT22;32724;51.094;6.996;2023-05-10T04:05:28;12.80;99.90
46976;DHT22;32724;51.094;6.996;2023-05-10T04:07:53;12.90;99.90
46976;DHT22;32724;51.094;6.996;2023-05-10T04:10:21;12.90;99.90
46976;DHT22;32724;51.094;6.996;2023-05-10T04:12:46;12.90;99.90
46976;DHT22;32724;51.094;6.996;2023-05-10T04:15:12;12.90;99.90
46976;DHT22;32724;51.094;6.996;2023-05-10T04:17:37;13.00;99.90
46976;DHT22;32724;51.094;6.996;2023-05-10T04:20:03;12.90;99.90
46976;DHT22;32724;51.094;6.996;2023-05-10T04:22:29;13.00;99.90
46976;DHT22;32724;51.094;6.996;2023-05-10T04:24:54;13.00;99.90
46976;DHT22;32724;51.094;6.996;2023-05-10T04:27:20;13.00;99.90
46976;DHT22;32724;51.094;6.996;2023-05-10T04:29:45;13.10;99.90
46976;DHT22;32724;51.094;6.996;2023-05-10T04:32:11;13.00;99.90
46976;DHT22;32724;51.094;6.996;2023-05-10T04:34:36;13.00;99.90
46976;DHT22;32724;51.094;6.996;2023-05-10T04:37:02;13.10;99.90
46976;DHT22;32724;51.094;6.996;2023-05-10T04:39:27;13.10;99.90
46976;DHT22;32724;51.094;6.996;2023-05-10T04:41:53;13.10;99.90
46976;DHT22;32724;51.094;6.996;2023-05-10T04:44:18;13.00;99.90
46976;DHT22;32724;51.094;6.996;2023-05-10T04:46:44;13.00;99.90
46976;DHT22;32724;51.094;6.996;2023-05-10T04:49:09;13.10;99.90
46976;DHT22;32724;51.094;6.996;2023-05-10T04:51:35;13.10;99.90
46976;DHT22;32724;51.094;6.996;2023-05-10T04:54:00;13.10;99.90
46976;DHT22;32724;51.094;6.996;2023-05-10T04:56:26;13.20;99.90
46976;DHT22;32724;51.094;6.996;2023-05-10T04:58:54;13.20;99.90
46976;DHT22;32724;51.094;6.996;2023-05-10T05:01:20;13.20;99.90
46976;DHT22;32724;51.094;6.996;2023-05-10T05:03:45;13.20;99.90
46976;DHT22;32724;51.094;6.996;2023-05-10T05:06:11;13.20;99.90
46976;DHT22;32724;51.094;6.996;2023-05-10T05:08:36;13.30;99.90
46976;DHT22;32724;51.094;6.996;2023-05-10T05:11:02;13.30;99.90
46976;DHT22;32724;51.094;6.996;2023-05-10T05:13:27;13.30;99.90
46976;DHT22;32724;51.094;6.996;2023-05-10T05:15:53;13.30;99.90
46976;DHT22;32724;51.094;6.996;2023-05-10T05:18:18;13.40;99.90
46976;DHT22;32724;51.094;6.996;2023-05-10T05:20:44;13.40;99.90
46976;DHT22;32724;51.094;6.996;2023-05-10T05:23:09;13.40;99.90
46976;DHT22;32724;51.094;6.996;2023-05-10T05:25:35;13.50;99.90
46976;DHT22;32724;51.094;6.996;2023-05-10T05:28:01;13.50;99.90
46976;DHT22;32724;51.094;6.996;2023-05-10T05:30:26;13.50;99.90
46976;DHT22;32724;51.094;6.996;2023-05-10T05:32:52;13.60;99.90
46976;DHT22;32724;51.094;6.996;2023-05-10T05:35:17;13.70;99.90
46976;DHT22;32724;51.094;6.996;2023-05-10T05:37:43;13.80;99.90
46976;DHT22;32724;51.094;6.996;2023-05-10T05:40:11;13.90;99.90
46976;DHT22;32724;51.094;6.996;2023-05-10T05:42:37;14.00;99.90
46976;DHT22;32724;51.094;6.996;2023-05-10T05:45:03;14.10;99.90
46976;DHT22;32724;51.094;6.996;2023-05-10T05:47:29;14.10;99.90
46976;DHT22;32724;51.094;6.996;2023-05-10T05:49:54;14.00;99.90
46976;DHT22;32724;51.094;6.996;2023-05-10T05:52:20;14.00;99.90
46976;DHT22;32724;51.094;6.996;2023-05-10T05:54:46;14.00;99.90
46976;DHT22;32724;51.094;6.996;2023-05-10T05:57:11;13.90;99.90
46976;DHT22;32724;51.094;6.996;2023-05-10T05:59:37;13.90;99.90
46976;DHT22;32724;51.094;6.996;2023-05-10T06:02:07;13.90;99.90
46976;DHT22;32724;51.094;6.996;2023-05-10T06:04:33;13.90;99.90
46976;DHT22;32724;51.094;6.996;2023-05-10T06:06:58;13.80;99.90
46976;DHT22;32724;51.094;6.996;2023-05-10T06:09:24;13.80;99.90
46976;DHT22;32724;51.094;6.996;2023-05-10T06:11:49;13.80;99.90
46976;DHT22;32724;51.094;6.996;2023-05-10T06:14:15;13.80;99.90
46976;DHT22;32724;51.094;6.996;2023-05-10T06:16:40;13.80;99.90
46976;DHT22;32724;51.094;6.996;2023-05-10T06:19:06;13.80;99.90
46976;DHT22;32724;51.094;6.996;2023-05-10T06:21:31;13.80;99.90
46976;DHT22;32724;51.094;6.996;2023-05-10T06:23:57;13.80;99.90
46976;DHT22;32724;51.094;6.996;2023-05-10T06:26:22;13.80;99.90
46976;DHT22;32724;51.094;6.996;2023-05-10T06:28:47;13.80;99.90
46976;DHT22;32724;51.094;6.996;2023-05-10T06:31:13;13.80;99.90
46976;DHT22;32724;51.094;6.996;2023-05-10T06:33:38;13.80;99.90
46976;DHT22;32724;51.094;6.996;2023-05-10T06:36:04;13.80;99.90
46976;DHT22;32724;51.094;6.996;2023-05-10T06:38:29;13.80;99.90
46976;DHT22;32724;51.094;6.996;2023-05-10T06:40:55;13.80;99.90
46976;DHT22;32724;51.094;6.996;2023-05-10T06:43:20;13.70;99.90
46976;DHT22;32724;51.094;6.996;2023-05-10T06:45:47;13.60;99.90
46976;DHT22;32724;51.094;6.996;2023-05-10T06:48:12;13.60;99.90
46976;DHT22;32724;51.094;6.996;2023-05-10T06:50:38;13.60;99.90
46976;DHT22;32724;51.094;6.996;2023-05-10T06:53:03;13.60;99.90
46976;DHT22;32724;51.094;6.996;2023-05-10T06:55:29;13.50;99.90
46976;DHT22;32724;51.094;6.996;2023-05-10T06:57:54;13.60;99.90
46976;DHT22;32724;51.094;6.996;2023-05-10T07:00:20;13.50;99.90
46976;DHT22;32724;51.094;6.996;2023-05-10T07:02:45;13.60;99.90
46976;DHT22;32724;51.094;6.996;2023-05-10T07:05:12;13.50;99.90
46976;DHT22;32724;51.094;6.996;2023-05-10T07:07:37;13.50;99.90
46976;DHT22;32724;51.094;6.996;2023-05-10T07:10:03;13.50;99.90
46976;DHT22;32724;51.094;6.996;2023-05-10T07:12:28;13.40;99.90
46976;DHT22;32724;51.094;6.996;2023-05-10T07:14:54;13.30;99.90
46976;DHT22;32724;51.094;6.996;2023-05-10T07:17:19;13.30;99.90
46976;DHT22;32724;51.094;6.996;2023-05-10T07:19:45;13.30;99.90
46976;DHT22;32724;51.094;6.996;2023-05-10T07:22:10;13.20;99.90
46976;DHT22;32724;51.094;6.996;2023-05-10T07:24:36;13.30;99.90
46976;DHT22;32724;51.094;6.996;2023-05-10T07:27:02;13.30;99.90
46976;DHT22;32724;51.094;6.996;2023-05-10T07:29:27;13.50;99.90
46976;DHT22;32724;51.094;6.996;2023-05-10T07:31:53;13.60;99.90
46976;DHT22;32724;51.094;6.996;2023-05-10T07:34:19;13.80;99.90
46976;DHT22;32724;51.094;6.996;2023-05-10T07:36:44;13.90;99.90
46976;DHT22;32724;51.094;6.996;2023-05-10T07:39:10;13.90;99.90
46976;DHT22;32724;51.094;6.996;2023-05-10T07:41:35;14.00;99.90
46976;DHT22;32724;51.094;6.996;2023-05-10T07:44:02;14.00;99.90
46976;DHT22;32724;51.094;6.996;2023-05-10T07:46:28;14.00;99.90
46976;DHT22;32724;51.094;6.996;2023-05-10T07:48:54;14.10;99.90
46976;DHT22;32724;51.094;6.996;2023-05-10T07:51:19;14.10;99.90
46976;DHT22;32724;51.094;6.996;2023-05-10T07:53:45;14.20;99.90
46976;DHT22;32724;51.094;6.996;2023-05-10T07:56:20;14.30;99.90
46976;DHT22;32724;51.094;6.996;2023-05-10T07:58:46;14.40;99.90
46976;DHT22;32724;51.094;6.996;2023-05-10T08:01:11;14.50;99.90
46976;DHT22;32724;51.094;6.996;2023-05-10T08:03:37;14.80;99.90
46976;DHT22;32724;51.094;6.996;2023-05-10T08:06:02;15.10;99.90
46976;DHT22;32724;51.094;6.996;2023-05-10T08:08:28;15.30;99.90
46976;DHT22;32724;51.094;6.996;2023-05-10T08:10:53;15.40;99.90
46976;DHT22;32724;51.094;6.996;2023-05-10T08:13:19;15.50;99.90
46976;DHT22;32724;51.094;6.996;2023-05-10T08:15:44;15.60;99.90
46976;DHT22;32724;51.094;6.996;2023-05-10T08:18:10;15.50;99.90
46976;DHT22;32724;51.094;6.996;2023-05-10T08:20:35;15.60;99.90
46976;DHT22;32724;51.094;6.996;2023-05-10T08:23:01;15.70;99.90
46976;DHT22;32724;51.094;6.996;2023-05-10T08:25:26;15.90;99.90
46976;DHT22;32724;51.094;6.996;2023-05-10T08:27:52;16.10;99.90
46976;DHT22;32724;51.094;6.996;2023-05-10T08:30:17;16.10;99.90
46976;DHT22;32724;51.094;6.996;2023-05-10T08:32:43;16.10;99.90
46976;DHT22;32724;51.094;6.996;2023-05-10T08:35:08;16.00;99.90
46976;DHT22;32724;51.094;6.996;2023-05-10T08:37:33;15.90;99.90
46976;DHT22;32724;51.094;6.996;2023-05-10T08:39:59;15.80;99.90
46976;DHT22;32724;51.094;6.996;2023-05-10T08:42:25;15.80;99.90
46976;DHT22;32724;51.094;6.996;2023-05-10T08:44:51;15.80;99.90
46976;DHT22;32724;51.094;6.996;2023-05-10T08:47:17;15.50;99.90
46976;DHT22;32724;51.094;6.996;2023-05-10T08:49:43;15.30;99.90
46976;DHT22;32724;51.094;6.996;2023-05-10T08:52:09;15.20;99.90
46976;DHT22;32724;51.094;6.996;2023-05-10T08:54:36;15.10;99.90
46976;DHT22;32724;51.094;6.996;2023-05-10T08:57:02;15.00;99.90
46976;DHT22;32724;51.094;6.996;2023-05-10T08:59:28;15.00;99.90
46976;DHT22;32724;51.094;6.996;2023-05-10T09:01:54;15.00;99.90
46976;DHT22;32724;51.094;6.996;2023-05-10T09:04:20;15.30;99.90
46976;DHT22;32724;51.094;6.996;2023-05-10T09:06:46;15.60;99.90
46976;DHT22;32724;51.094;6.996;2023-05-10T09:09:12;15.70;99.90
46976;DHT22;32724;51.094;6.996;2023-05-10T09:11:37;15.90;99.90
46976;DHT22;32724;51.094;6.996;2023-05-10T09:14:03;16.20;99.90
46976;DHT22;32724;51.094;6.996;2023-05-10T09:16:29;16.40;99.90
46976;DHT22;32724;51.094;6.996;2023-05-10T09:18:54;16.60;99.90
46976;DHT22;32724;51.094;6.996;2023-05-10T09:21:20;16.90;99.90
46976;DHT22;32724;51.094;6.996;2023-05-10T09:23:46;16.80;99.90
46976;DHT22;32724;51.094;6.996;2023-05-10T09:26:15;16.80;99.90
46976;DHT22;32724;51.094;6.996;2023-05-10T09:28:51;16.50;99.90
46976;DHT22;32724;51.094;6.996;2023-05-10T09:31:16;16.30;99.90
46976;DHT22;32724;51.094;6.996;2023-05-10T09:33:46;16.30;99.90
46976;DHT22;32724;51.094;6.996;2023-05-10T09:36:12;16.30;99.90
46976;DHT22;32724;51.094;6.996;2023-05-10T09:38:47;16.40;99.90
46976;DHT22;32724;51.094;6.996;2023-05-10T09:41:17;16.50;99.90
46976;DHT22;32724;51.094;6.996;2023-05-10T09:43:42;16.70;99.90
46976;DHT22;32724;51.094;6.996;2023-05-10T09:46:08;16.70;99.90
46976;DHT22;32724;51.094;6.996;2023-05-10T09:48:34;16.70;99.90
46976;DHT22;32724;51.094;6.996;2023-05-10T09:50:59;16.70;99.90
46976;DHT22;32724;51.094;6.996;2023-05-10T09:53:25;16.80;99.90
46976;DHT22;32724;51.094;6.996;2023-05-10T09:55:51;16.70;99.90
46976;DHT22;32724;51.094;6.996;2023-05-10T09:58:16;16.50;99.90
46976;DHT22;32724;51.094;6.996;2023-05-10T10:00:43;16.30;99.90
46976;DHT22;32724;51.094;6.996;2023-05-10T10:03:12;15.70;99.90
46976;DHT22;32724;51.094;6.996;2023-05-10T10:05:39;15.20;99.90
46976;DHT22;32724;51.094;6.996;2023-05-10T10:08:05;14.80;99.90
46976;DHT22;32724;51.094;6.996;2023-05-10T10:10:31;14.50;99.90
46976;DHT22;32724;51.094;6.996;2023-05-10T10:12:57;14.40;99.90
46976;DHT22;32724;51.094;6.996;2023-05-10T10:15:23;14.40;99.90
46976;DHT22;32724;51.094;6.996;2023-05-10T10:17:49;14.40;99.90
46976;DHT22;32724;51.094;6.996;2023-05-10T10:20:15;14.40;99.90
46976;DHT22;32724;51.094;6.996;2023-05-10T10:22:41;14.50;99.90
46976;DHT22;32724;51.094;6.996;2023-05-10T10:25:10;14.60;99.90
46976;DHT22;32724;51.094;6.996;2023-05-10T10:32:38;15.50;99.90
46976;DHT22;32724;51.094;6.996;2023-05-10T10:35:07;15.70;99.90
46976;DHT22;32724;51.094;6.996;2023-05-10T10:37:43;15.90;99.90
46976;DHT22;32724;51.094;6.996;2023-05-10T10:40:28;16.10;99.90
46976;DHT22;32724;51.094;6.996;2023-05-10T10:42:54;16.40;99.90
46976;DHT22;32724;51.094;6.996;2023-05-10T10:45:20;16.50;99.90
46976;DHT22;32724;51.094;6.996;2023-05-10T10:47:46;16.30;99.90
46976;DHT22;32724;51.094;6.996;2023-05-10T10:50:12;16.00;99.90
46976;DHT22;32724;51.094;6.996;2023-05-10T10:52:42;16.00;99.90
46976;DHT22;32724;51.094;6.996;2023-05-10T11:02:46;16.00;99.90
46976;DHT22;32724;51.094;6.996;2023-05-10T11:07:58;16.60;99.90
46976;DHT22;32724;51.094;6.996;2023-05-10T11:10:24;16.80;99.90
46976;DHT22;32724;51.094;6.996;2023-05-10T11:13:00;17.10;99.90
46976;DHT22;32724;51.094;6.996;2023-05-10T11:15:29;17.30;99.90
46976;DHT22;32724;51.094;6.996;2023-05-10T11:17:55;17.50;99.90
46976;DHT22;32724;51.094;6.996;2023-05-10T11:20:21;17.00;99.90
46976;DHT22;32724;51.094;6.996;2023-05-10T11:22:53;16.10;99.90
46976;DHT22;32724;51.094;6.996;2023-05-10T11:25:19;15.70;99.90
46976;DHT22;32724;51.094;6.996;2023-05-10T11:27:45;15.40;99.90
46976;DHT22;32724;51.094;6.996;2023-05-10T11:30:10;15.00;99.90
46976;DHT22;32724;51.094;6.996;2023-05-10T11:32:37;15.00;99.90
46976;DHT22;32724;51.094;6.996;2023-05-10T11:35:07;15.10;99.90
46976;DHT22;32724;51.094;6.996;2023-05-10T11:37:33;15.40;99.90
46976;DHT22;32724;51.094;6.996;2023-05-10T11:39:59;16.00;99.90
46976;DHT22;32724;51.094;6.996;2023-05-10T11:42:25;16.40;99.90
46976;DHT22;32724;51.094;6.996;2023-05-10T11:44:50;16.80;99.90
46976;DHT22;32724;51.094;6.996;2023-05-10T11:47:15;16.90;99.90
46976;DHT22;32724;51.094;6.996;2023-05-10T11:49:44;17.10;99.90
46976;DHT22;32724;51.094;6.996;2023-05-10T11:52:10;17.20;99.90
46976;DHT22;32724;51.094;6.996;2023-05-10T11:54:51;17.00;99.90
46976;DHT22;32724;51.094;6.996;2023-05-10T11:57:18;16.90;99.90
46976;DHT22;32724;51.094;6.996;2023-05-10T11:59:43;16.80;99.90
46976;DHT22;32724;51.094;6.996;2023-05-10T12:02:09;16.80;99.90
46976;DHT22;32724;51.094;6.996;2023-05-10T12:04:35;16.70;99.90
46976;DHT22;32724;51.094;6.996;2023-05-10T12:07:00;16.70;99.90
46976;DHT22;32724;51.094;6.996;2023-05-10T12:09:26;16.50;99.90
46976;DHT22;32724;51.094;6.996;2023-05-10T12:11:54;16.40;99.90
46976;DHT22;32724;51.094;6.996;2023-05-10T12:14:20;16.30;99.90
46976;DHT22;32724;51.094;6.996;2023-05-10T12:16:47;16.20;99.90
46976;DHT22;32724;51.094;6.996;2023-05-10T12:19:12;16.30;99.90
46976;DHT22;32724;51.094;6.996;2023-05-10T12:21:43;16.30;99.90
46976;DHT22;32724;51.094;6.996;2023-05-10T12:24:09;16.50;99.90
46976;DHT22;32724;51.094;6.996;2023-05-10T12:26:36;16.60;99.90
46976;DHT22;32724;51.094;6.996;2023-05-10T12:29:14;16.80;99.90
46976;DHT22;32724;51.094;6.996;2023-05-10T12:31:53;17.10;99.90
46976;DHT22;32724;51.094;6.996;2023-05-10T12:34:37;17.20;99.90
46976;DHT22;32724;51.094;6.996;2023-05-10T12:37:03;17.30;99.90
46976;DHT22;32724;51.094;6.996;2023-05-10T12:39:41;17.50;99.90
46976;DHT22;32724;51.094;6.996;2023-05-10T12:42:07;17.60;99.90
46976;DHT22;32724;51.094;6.996;2023-05-10T12:44:32;17.90;99.90
46976;DHT22;32724;51.094;6.996;2023-05-10T12:46:58;18.10;99.90
46976;DHT22;32724;51.094;6.996;2023-05-10T12:49:23;18.30;99.90
46976;DHT22;32724;51.094;6.996;2023-05-10T12:51:49;18.60;99.90
46976;DHT22;32724;51.094;6.996;2023-05-10T12:54:14;18.80;99.90
46976;DHT22;32724;51.094;6.996;2023-05-10T12:56:39;19.00;99.90
46976;DHT22;32724;51.094;6.996;2023-05-10T12:59:06;19.10;99.90
46976;DHT22;32724;51.094;6.996;2023-05-10T13:01:31;19.10;99.90
46976;DHT22;32724;51.094;6.996;2023-05-10T13:03:57;19.00;99.90
46976;DHT22;32724;51.094;6.996;2023-05-10T13:06:22;18.50;99.90
46976;DHT22;32724;51.094;6.996;2023-05-10T13:08:48;18.00;99.90
46976;DHT22;32724;51.094;6.996;2023-05-10T13:11:13;17.50;99.90
46976;DHT22;32724;51.094;6.996;2023-05-10T13:13:41;17.20;99.90
46976;DHT22;32724;51.094;6.996;2023-05-10T13:16:07;17.00;99.90
46976;DHT22;32724;51.094;6.996;2023-05-10T13:18:32;16.90;99.90
46976;DHT22;32724;51.094;6.996;2023-05-10T13:20:58;16.70;99.90
46976;DHT22;32724;51.094;6.996;2023-05-10T13:23:23;16.60;99.90
46976;DHT22;32724;51.094;6.996;2023-05-10T13:25:49;16.70;99.90
46976;DHT22;32724;51.094;6.996;2023-05-10T13:28:15;16.70;99.90
46976;DHT22;32724;51.094;6.996;2023-05-10T13:30:40;16.50;99.90
46976;DHT22;32724;51.094;6.996;2023-05-10T13:33:06;16.50;99.90
46976;DHT22;32724;51.094;6.996;2023-05-10T13:35:31;16.40;99.90
46976;DHT22;32724;51.094;6.996;2023-05-10T13:37:56;16.30;99.90
46976;DHT22;32724;51.094;6.996;2023-05-10T13:40:22;16.10;99.90
46976;DHT22;32724;51.094;6.996;2023-05-10T13:42:48;16.00;99.90
46976;DHT22;32724;51.094;6.996;2023-05-10T13:45:13;16.00;99.90
46976;DHT22;32724;51.094;6.996;2023-05-10T13:47:39;16.00;99.90
46976;DHT22;32724;51.094;6.996;2023-05-10T13:50:05;16.00;99.90
46976;DHT22;32724;51.094;6.996;2023-05-10T13:52:31;16.20;99.90
46976;DHT22;32724;51.094;6.996;2023-05-10T13:54:56;16.40;99.90
46976;DHT22;32724;51.094;6.996;2023-05-10T13:57:22;16.70;99.90
46976;DHT22;32724;51.094;6.996;2023-05-10T13:59:48;16.90;99.90
46976;DHT22;32724;51.094;6.996;2023-05-10T14:02:13;17.10;99.90
46976;DHT22;32724;51.094;6.996;2023-05-10T14:04:39;17.10;99.90
46976;DHT22;32724;51.094;6.996;2023-05-10T14:07:05;16.90;99.90
46976;DHT22;32724;51.094;6.996;2023-05-10T14:09:30;17.10;99.90
46976;DHT22;32724;51.094;6.996;2023-05-10T14:11:56;17.30;99.90
46976;DHT22;32724;51.094;6.996;2023-05-10T14:14:22;17.60;99.90
46976;DHT22;32724;51.094;6.996;2023-05-10T14:16:48;17.90;99.90
46976;DHT22;32724;51.094;6.996;2023-05-10T14:19:13;18.10;99.90
46976;DHT22;32724;51.094;6.996;2023-05-10T14:21:39;18.10;99.90
46976;DHT22;32724;51.094;6.996;2023-05-10T14:24:04;18.00;99.90
46976;DHT22;32724;51.094;6.996;2023-05-10T14:26:30;18.00;99.90
46976;DHT22;32724;51.094;6.996;2023-05-10T14:28:56;18.00;99.90
46976;DHT22;32724;51.094;6.996;2023-05-10T14:31:21;17.90;99.90
46976;DHT22;32724;51.094;6.996;2023-05-10T14:33:48;17.70;99.90
46976;DHT22;32724;51.094;6.996;2023-05-10T14:36:13;17.40;99.90
46976;DHT22;32724;51.094;6.996;2023-05-10T14:38:39;17.20;99.90
46976;DHT22;32724;51.094;6.996;2023-05-10T14:41:05;17.00;99.90
46976;DHT22;32724;51.094;6.996;2023-05-10T14:43:30;16.80;99.90
46976;DHT22;32724;51.094;6.996;2023-05-10T14:45:56;16.70;99.90
46976;DHT22;32724;51.094;6.996;2023-05-10T14:48:21;16.40;99.90
46976;DHT22;32724;51.094;6.996;2023-05-10T14:50:47;16.30;99.90
46976;DHT22;32724;51.094;6.996;2023-05-10T14:53:15;16.40;99.90
46976;DHT22;32724;51.094;6.996;2023-05-10T14:55:40;16.30;99.90
46976;DHT22;32724;51.094;6.996;2023-05-10T14:58:06;16.30;99.90
46976;DHT22;32724;51.094;6.996;2023-05-10T15:00:31;16.20;99.90
46976;DHT22;32724;51.094;6.996;2023-05-10T15:02:57;16.30;99.90
46976;DHT22;32724;51.094;6.996;2023-05-10T15:05:22;16.40;99.90
46976;DHT22;32724;51.094;6.996;2023-05-10T15:07:48;16.50;99.90
46976;DHT22;32724;51.094;6.996;2023-05-10T15:10:14;16.60;99.90
46976;DHT22;32724;51.094;6.996;2023-05-10T15:12:39;16.70;99.90
46976;DHT22;32724;51.094;6.996;2023-05-10T15:15:05;16.80;99.90
46976;DHT22;32724;51.094;6.996;2023-05-10T15:17:31;17.10;99.90
46976;DHT22;32724;51.094;6.996;2023-05-10T15:19:57;17.30;99.90
46976;DHT22;32724;51.094;6.996;2023-05-10T15:22:22;17.40;99.90
46976;DHT22;32724;51.094;6.996;2023-05-10T15:24:48;17.70;99.90
46976;DHT22;32724;51.094;6.996;2023-05-10T15:27:13;17.80;99.90
46976;DHT22;32724;51.094;6.996;2023-05-10T15:29:39;17.90;99.90
46976;DHT22;32724;51.094;6.996;2023-05-10T15:32:04;17.80;99.90
46976;DHT22;32724;51.094;6.996;2023-05-10T15:34:30;17.60;99.90
46976;DHT22;32724;51.094;6.996;2023-05-10T15:36:56;17.60;99.90
46976;DHT22;32724;51.094;6.996;2023-05-10T15:39:22;17.50;99.90
46976;DHT22;32724;51.094;6.996;2023-05-10T15:41:47;17.60;99.90
46976;DHT22;32724;51.094;6.996;2023-05-10T15:44:13;17.70;99.90
46976;DHT22;32724;51.094;6.996;2023-05-10T15:46:38;17.70;99.90
46976;DHT22;32724;51.094;6.996;2023-05-10T15:49:04;17.80;99.90
46976;DHT22;32724;51.094;6.996;2023-05-10T15:51:31;17.70;99.90
46976;DHT22;32724;51.094;6.996;2023-05-10T15:53:58;17.70;99.90
46976;DHT22;32724;51.094;6.996;2023-05-10T15:56:23;17.60;99.90
46976;DHT22;32724;51.094;6.996;2023-05-10T15:58:48;17.60;99.90